sensor_id;sensor_type;location;lat;lon;timestamp;P1;durP1;ratioP1;P2;durP2;ratioP2
38224;SDS011;24025;48.138;11.428;2023-03-11T00:00:38;1.52;;;0.28;;
38224;SDS011;24025;48.138;11.428;2023-03-11T00:03:15;0.45;;;0.20;;
38224;SDS011;24025;48.138;11.428;2023-03-11T00:05:49;0.50;;;0.30;;
38224;SDS011;24025;48.138;11.428;2023-03-11T00:08:22;0.32;;;0.20;;
38224;SDS011;24025;48.138;11.428;2023-03-11T00:10:57;0.30;;;0.30;;
38224;SDS011;24025;48.138;11.428;2023-03-11T00:13:31;0.30;;;0.30;;
38224;SDS011;24025;48.138;11.428;2023-03-11T00:16:03;0.88;;;0.30;;
38224;SDS011;24025;48.138;11.428;2023-03-11T00:18:35;0.52;;;0.38;;
38224;SDS011;24025;48.138;11.428;2023-03-11T00:21:12;0.33;;;0.30;;
38224;SDS011;24025;48.138;11.428;2023-03-11T00:23:46;4.32;;;0.40;;
38224;SDS011;24025;48.138;11.428;2023-03-11T00:26:19;0.98;;;0.40;;
38224;SDS011;24025;48.138;11.428;2023-03-11T00:28:51;0.20;;;0.10;;
38224;SDS011;24025;48.138;11.428;2023-03-11T00:31:23;0.65;;;0.40;;
38224;SDS011;24025;48.138;11.428;2023-03-11T00:33:57;0.22;;;0.15;;
38224;SDS011;24025;48.138;11.428;2023-03-11T00:36:29;1.17;;;0.38;;
38224;SDS011;24025;48.138;11.428;2023-03-11T00:39:02;0.32;;;0.20;;
38224;SDS011;24025;48.138;11.428;2023-03-11T00:41:38;2.60;;;0.30;;
38224;SDS011;24025;48.138;11.428;2023-03-11T00:44:10;0.77;;;0.20;;
38224;SDS011;24025;48.138;11.428;2023-03-11T00:46:43;0.20;;;0.17;;
38224;SDS011;24025;48.138;11.428;2023-03-11T00:49:14;0.43;;;0.20;;
38224;SDS011;24025;48.138;11.428;2023-03-11T00:51:46;0.63;;;0.40;;
38224;SDS011;24025;48.138;11.428;2023-03-11T00:54:18;0.05;;;0.05;;
38224;SDS011;24025;48.138;11.428;2023-03-11T00:56:49;0.30;;;0.20;;
38224;SDS011;24025;48.138;11.428;2023-03-11T00:59:21;0.47;;;0.28;;
38224;SDS011;24025;48.138;11.428;2023-03-11T01:01:52;0.40;;;0.20;;
38224;SDS011;24025;48.138;11.428;2023-03-11T01:04:24;0.25;;;0.20;;
38224;SDS011;24025;48.138;11.428;2023-03-11T01:06:57;1.02;;;0.30;;
38224;SDS011;24025;48.138;11.428;2023-03-11T01:09:29;1.95;;;0.40;;
38224;SDS011;24025;48.138;11.428;2023-03-11T01:12:00;2.10;;;0.53;;
38224;SDS011;24025;48.138;11.428;2023-03-11T01:14:33;0.35;;;0.28;;
38224;SDS011;24025;48.138;11.428;2023-03-11T01:17:07;0.30;;;0.30;;
38224;SDS011;24025;48.138;11.428;2023-03-11T01:19:39;1.17;;;0.40;;
38224;SDS011;24025;48.138;11.428;2023-03-11T01:22:11;0.35;;;0.30;;
38224;SDS011;24025;48.138;11.428;2023-03-11T01:24:42;0.77;;;0.30;;
38224;SDS011;24025;48.138;11.428;2023-03-11T01:27:14;3.28;;;0.50;;
38224;SDS011;24025;48.138;11.428;2023-03-11T01:29:46;1.85;;;0.28;;
38224;SDS011;24025;48.138;11.428;2023-03-11T01:32:17;0.57;;;0.30;;
38224;SDS011;24025;48.138;11.428;2023-03-11T01:34:50;0.30;;;0.30;;
38224;SDS011;24025;48.138;11.428;2023-03-11T01:37:21;0.70;;;0.30;;
38224;SDS011;24025;48.138;11.428;2023-03-11T01:39:53;0.98;;;0.40;;
38224;SDS011;24025;48.138;11.428;2023-03-11T01:42:27;2.47;;;0.40;;
38224;SDS011;24025;48.138;11.428;2023-03-11T01:45:00;1.08;;;0.50;;
38224;SDS011;24025;48.138;11.428;2023-03-11T01:47:34;0.60;;;0.30;;
38224;SDS011;24025;48.138;11.428;2023-03-11T01:50:09;0.40;;;0.30;;
38224;SDS011;24025;48.138;11.428;2023-03-11T01:52:44;0.10;;;0.10;;
38224;SDS011;24025;48.138;11.428;2023-03-11T01:55:16;0.35;;;0.25;;
38224;SDS011;24025;48.138;11.428;2023-03-11T01:57:49;0.73;;;0.30;;
38224;SDS011;24025;48.138;11.428;2023-03-11T02:00:23;0.70;;;0.28;;
38224;SDS011;24025;48.138;11.428;2023-03-11T02:02:56;0.75;;;0.45;;
38224;SDS011;24025;48.138;11.428;2023-03-11T02:05:30;0.28;;;0.20;;
38224;SDS011;24025;48.138;11.428;2023-03-11T02:08:06;0.25;;;0.22;;
38224;SDS011;24025;48.138;11.428;2023-03-11T02:10:38;1.17;;;0.32;;
38224;SDS011;24025;48.138;11.428;2023-03-11T02:13:12;0.57;;;0.25;;
38224;SDS011;24025;48.138;11.428;2023-03-11T02:15:44;0.45;;;0.35;;
38224;SDS011;24025;48.138;11.428;2023-03-11T02:18:16;1.90;;;0.10;;
38224;SDS011;24025;48.138;11.428;2023-03-11T02:20:57;0.45;;;0.15;;
38224;SDS011;24025;48.138;11.428;2023-03-11T02:23:51;0.98;;;0.30;;
38224;SDS011;24025;48.138;11.428;2023-03-11T02:26:29;0.60;;;0.40;;
38224;SDS011;24025;48.138;11.428;2023-03-11T02:29:11;0.38;;;0.28;;
38224;SDS011;24025;48.138;11.428;2023-03-11T02:31:43;0.60;;;0.20;;
38224;SDS011;24025;48.138;11.428;2023-03-11T02:34:27;0.50;;;0.28;;
38224;SDS011;24025;48.138;11.428;2023-03-11T02:37:04;1.67;;;0.35;;
38224;SDS011;24025;48.138;11.428;2023-03-11T02:42:31;0.60;;;0.32;;
38224;SDS011;24025;48.138;11.428;2023-03-11T02:45:10;1.25;;;0.43;;
38224;SDS011;24025;48.138;11.428;2023-03-11T02:47:43;0.50;;;0.40;;
38224;SDS011;24025;48.138;11.428;2023-03-11T02:50:15;0.50;;;0.33;;
38224;SDS011;24025;48.138;11.428;2023-03-11T02:52:49;1.42;;;0.30;;
38224;SDS011;24025;48.138;11.428;2023-03-11T02:55:22;0.52;;;0.30;;
38224;SDS011;24025;48.138;11.428;2023-03-11T02:57:54;0.57;;;0.32;;
38224;SDS011;24025;48.138;11.428;2023-03-11T03:00:25;0.33;;;0.23;;
38224;SDS011;24025;48.138;11.428;2023-03-11T03:02:57;1.70;;;0.28;;
38224;SDS011;24025;48.138;11.428;2023-03-11T03:05:29;0.20;;;0.20;;
38224;SDS011;24025;48.138;11.428;2023-03-11T03:08:00;1.65;;;0.45;;
38224;SDS011;24025;48.138;11.428;2023-03-11T03:13:04;0.35;;;0.25;;
38224;SDS011;24025;48.138;11.428;2023-03-11T03:15:36;0.40;;;0.20;;
38224;SDS011;24025;48.138;11.428;2023-03-11T03:18:08;0.50;;;0.30;;
38224;SDS011;24025;48.138;11.428;2023-03-11T03:20:40;1.40;;;0.30;;
38224;SDS011;24025;48.138;11.428;2023-03-11T03:23:12;0.17;;;0.17;;
38224;SDS011;24025;48.138;11.428;2023-03-11T03:25:43;1.20;;;0.30;;
38224;SDS011;24025;48.138;11.428;2023-03-11T03:28:15;0.52;;;0.30;;
38224;SDS011;24025;48.138;11.428;2023-03-11T03:30:47;1.75;;;0.20;;
38224;SDS011;24025;48.138;11.428;2023-03-11T03:33:19;1.13;;;0.20;;
38224;SDS011;24025;48.138;11.428;2023-03-11T03:35:50;0.20;;;0.20;;
38224;SDS011;24025;48.138;11.428;2023-03-11T03:38:22;1.65;;;0.20;;
38224;SDS011;24025;48.138;11.428;2023-03-11T03:40:54;0.75;;;0.20;;
38224;SDS011;24025;48.138;11.428;2023-03-11T03:43:26;0.50;;;0.30;;
38224;SDS011;24025;48.138;11.428;2023-03-11T03:45:58;0.70;;;0.20;;
38224;SDS011;24025;48.138;11.428;2023-03-11T03:48:32;0.50;;;0.20;;
38224;SDS011;24025;48.138;11.428;2023-03-11T03:51:10;0.52;;;0.10;;
38224;SDS011;24025;48.138;11.428;2023-03-11T03:53:43;0.55;;;0.15;;
38224;SDS011;24025;48.138;11.428;2023-03-11T03:56:17;0.30;;;0.20;;
38224;SDS011;24025;48.138;11.428;2023-03-11T04:01:20;0.10;;;0.10;;
38224;SDS011;24025;48.138;11.428;2023-03-11T04:03:52;0.55;;;0.32;;
38224;SDS011;24025;48.138;11.428;2023-03-11T04:06:24;0.30;;;0.20;;
38224;SDS011;24025;48.138;11.428;2023-03-11T04:08:56;2.28;;;0.30;;
38224;SDS011;24025;48.138;11.428;2023-03-11T04:11:28;2.17;;;0.20;;
38224;SDS011;24025;48.138;11.428;2023-03-11T04:14:00;0.35;;;0.15;;
38224;SDS011;24025;48.138;11.428;2023-03-11T04:16:32;0.10;;;0.10;;
38224;SDS011;24025;48.138;11.428;2023-03-11T04:19:04;1.27;;;0.30;;
38224;SDS011;24025;48.138;11.428;2023-03-11T04:21:38;0.75;;;0.20;;
38224;SDS011;24025;48.138;11.428;2023-03-11T04:24:10;0.88;;;0.30;;
38224;SDS011;24025;48.138;11.428;2023-03-11T04:26:41;2.73;;;0.30;;
38224;SDS011;24025;48.138;11.428;2023-03-11T04:29:13;0.55;;;0.30;;
38224;SDS011;24025;48.138;11.428;2023-03-11T04:31:47;0.60;;;0.30;;
38224;SDS011;24025;48.138;11.428;2023-03-11T04:34:19;0.65;;;0.25;;
38224;SDS011;24025;48.138;11.428;2023-03-11T04:36:51;0.40;;;0.23;;
38224;SDS011;24025;48.138;11.428;2023-03-11T04:39:24;0.57;;;0.30;;
38224;SDS011;24025;48.138;11.428;2023-03-11T04:41:55;0.20;;;0.20;;
38224;SDS011;24025;48.138;11.428;2023-03-11T04:44:27;1.38;;;0.35;;
38224;SDS011;24025;48.138;11.428;2023-03-11T04:46:58;0.93;;;0.38;;
38224;SDS011;24025;48.138;11.428;2023-03-11T04:49:30;1.77;;;0.30;;
38224;SDS011;24025;48.138;11.428;2023-03-11T04:52:02;0.40;;;0.20;;
38224;SDS011;24025;48.138;11.428;2023-03-11T04:54:33;0.60;;;0.38;;
38224;SDS011;24025;48.138;11.428;2023-03-11T04:57:05;0.68;;;0.35;;
38224;SDS011;24025;48.138;11.428;2023-03-11T04:59:37;1.38;;;0.38;;
38224;SDS011;24025;48.138;11.428;2023-03-11T05:02:08;0.40;;;0.28;;
38224;SDS011;24025;48.138;11.428;2023-03-11T05:04:43;0.75;;;0.40;;
38224;SDS011;24025;48.138;11.428;2023-03-11T05:09:46;2.63;;;0.50;;
38224;SDS011;24025;48.138;11.428;2023-03-11T05:12:18;1.40;;;0.30;;
38224;SDS011;24025;48.138;11.428;2023-03-11T05:14:50;0.65;;;0.30;;
38224;SDS011;24025;48.138;11.428;2023-03-11T05:17:22;1.20;;;0.40;;
38224;SDS011;24025;48.138;11.428;2023-03-11T05:19:55;0.85;;;0.40;;
38224;SDS011;24025;48.138;11.428;2023-03-11T05:22:27;1.80;;;0.50;;
38224;SDS011;24025;48.138;11.428;2023-03-11T05:24:59;0.80;;;0.30;;
38224;SDS011;24025;48.138;11.428;2023-03-11T05:27:30;0.80;;;0.40;;
38224;SDS011;24025;48.138;11.428;2023-03-11T05:32:34;1.50;;;0.43;;
38224;SDS011;24025;48.138;11.428;2023-03-11T05:35:06;0.63;;;0.30;;
38224;SDS011;24025;48.138;11.428;2023-03-11T05:37:39;1.00;;;0.40;;
38224;SDS011;24025;48.138;11.428;2023-03-11T05:40:11;1.08;;;0.85;;
38224;SDS011;24025;48.138;11.428;2023-03-11T05:42:42;3.22;;;0.50;;
38224;SDS011;24025;48.138;11.428;2023-03-11T05:45:15;0.68;;;0.30;;
38224;SDS011;24025;48.138;11.428;2023-03-11T05:47:47;1.30;;;0.40;;
38224;SDS011;24025;48.138;11.428;2023-03-11T05:50:18;2.87;;;0.40;;
38224;SDS011;24025;48.138;11.428;2023-03-11T05:52:50;0.88;;;0.40;;
38224;SDS011;24025;48.138;11.428;2023-03-11T05:55:21;2.88;;;0.40;;
38224;SDS011;24025;48.138;11.428;2023-03-11T05:57:53;0.37;;;0.20;;
38224;SDS011;24025;48.138;11.428;2023-03-11T06:00:25;0.80;;;0.45;;
38224;SDS011;24025;48.138;11.428;2023-03-11T06:02:59;3.72;;;0.47;;
38224;SDS011;24025;48.138;11.428;2023-03-11T06:05:30;0.83;;;0.33;;
38224;SDS011;24025;48.138;11.428;2023-03-11T06:08:02;0.50;;;0.43;;
38224;SDS011;24025;48.138;11.428;2023-03-11T06:10:34;2.17;;;0.30;;
38224;SDS011;24025;48.138;11.428;2023-03-11T06:13:05;1.03;;;0.50;;
38224;SDS011;24025;48.138;11.428;2023-03-11T06:15:37;0.87;;;0.40;;
38224;SDS011;24025;48.138;11.428;2023-03-11T06:18:09;1.90;;;0.40;;
38224;SDS011;24025;48.138;11.428;2023-03-11T06:20:41;5.28;;;0.30;;
38224;SDS011;24025;48.138;11.428;2023-03-11T06:23:12;2.30;;;0.40;;
38224;SDS011;24025;48.138;11.428;2023-03-11T06:25:53;0.47;;;0.35;;
38224;SDS011;24025;48.138;11.428;2023-03-11T06:28:28;3.28;;;0.55;;
38224;SDS011;24025;48.138;11.428;2023-03-11T06:31:11;1.05;;;0.40;;
38224;SDS011;24025;48.138;11.428;2023-03-11T06:33:46;2.90;;;0.30;;
38224;SDS011;24025;48.138;11.428;2023-03-11T06:36:18;1.88;;;0.30;;
38224;SDS011;24025;48.138;11.428;2023-03-11T06:38:51;0.50;;;0.30;;
38224;SDS011;24025;48.138;11.428;2023-03-11T06:41:24;0.73;;;0.40;;
38224;SDS011;24025;48.138;11.428;2023-03-11T06:43:56;4.13;;;0.82;;
38224;SDS011;24025;48.138;11.428;2023-03-11T06:46:29;2.72;;;0.75;;
38224;SDS011;24025;48.138;11.428;2023-03-11T06:49:01;1.35;;;0.70;;
38224;SDS011;24025;48.138;11.428;2023-03-11T06:51:33;3.88;;;0.40;;
38224;SDS011;24025;48.138;11.428;2023-03-11T06:54:05;3.03;;;0.43;;
38224;SDS011;24025;48.138;11.428;2023-03-11T06:56:37;3.03;;;0.52;;
38224;SDS011;24025;48.138;11.428;2023-03-11T06:59:08;1.63;;;0.43;;
38224;SDS011;24025;48.138;11.428;2023-03-11T07:01:40;6.80;;;0.57;;
38224;SDS011;24025;48.138;11.428;2023-03-11T07:04:12;1.23;;;0.40;;
38224;SDS011;24025;48.138;11.428;2023-03-11T07:06:43;3.08;;;1.17;;
38224;SDS011;24025;48.138;11.428;2023-03-11T07:09:15;2.37;;;0.40;;
38224;SDS011;24025;48.138;11.428;2023-03-11T07:11:47;0.50;;;0.50;;
38224;SDS011;24025;48.138;11.428;2023-03-11T07:14:18;2.17;;;0.20;;
38224;SDS011;24025;48.138;11.428;2023-03-11T07:16:50;0.80;;;0.40;;
38224;SDS011;24025;48.138;11.428;2023-03-11T07:19:22;0.73;;;0.40;;
38224;SDS011;24025;48.138;11.428;2023-03-11T07:21:54;4.10;;;0.43;;
38224;SDS011;24025;48.138;11.428;2023-03-11T07:24:27;0.73;;;0.30;;
38224;SDS011;24025;48.138;11.428;2023-03-11T07:26:59;2.90;;;0.40;;
38224;SDS011;24025;48.138;11.428;2023-03-11T07:29:30;2.08;;;0.45;;
38224;SDS011;24025;48.138;11.428;2023-03-11T07:32:02;1.48;;;0.50;;
38224;SDS011;24025;48.138;11.428;2023-03-11T07:34:34;1.33;;;0.35;;
38224;SDS011;24025;48.138;11.428;2023-03-11T07:37:06;2.25;;;0.68;;
38224;SDS011;24025;48.138;11.428;2023-03-11T07:39:38;0.93;;;0.57;;
38224;SDS011;24025;48.138;11.428;2023-03-11T07:42:09;3.45;;;0.28;;
38224;SDS011;24025;48.138;11.428;2023-03-11T07:44:41;1.02;;;0.40;;
38224;SDS011;24025;48.138;11.428;2023-03-11T07:47:13;2.15;;;0.50;;
38224;SDS011;24025;48.138;11.428;2023-03-11T07:49:44;1.37;;;0.30;;
38224;SDS011;24025;48.138;11.428;2023-03-11T07:52:17;2.08;;;0.60;;
38224;SDS011;24025;48.138;11.428;2023-03-11T07:54:49;1.83;;;0.52;;
38224;SDS011;24025;48.138;11.428;2023-03-11T07:57:20;2.08;;;0.45;;
38224;SDS011;24025;48.138;11.428;2023-03-11T07:59:52;1.25;;;0.40;;
38224;SDS011;24025;48.138;11.428;2023-03-11T08:02:24;2.13;;;0.47;;
38224;SDS011;24025;48.138;11.428;2023-03-11T08:04:55;1.67;;;0.60;;
38224;SDS011;24025;48.138;11.428;2023-03-11T08:07:29;2.17;;;0.60;;
38224;SDS011;24025;48.138;11.428;2023-03-11T08:10:01;2.92;;;0.70;;
38224;SDS011;24025;48.138;11.428;2023-03-11T08:12:34;0.95;;;0.52;;
38224;SDS011;24025;48.138;11.428;2023-03-11T08:15:07;2.47;;;0.55;;
38224;SDS011;24025;48.138;11.428;2023-03-11T08:17:39;2.42;;;0.63;;
38224;SDS011;24025;48.138;11.428;2023-03-11T08:20:11;2.73;;;0.50;;
38224;SDS011;24025;48.138;11.428;2023-03-11T08:22:42;1.80;;;0.52;;
38224;SDS011;24025;48.138;11.428;2023-03-11T08:25:28;4.43;;;1.02;;
38224;SDS011;24025;48.138;11.428;2023-03-11T08:28:00;4.80;;;0.60;;
38224;SDS011;24025;48.138;11.428;2023-03-11T08:30:32;3.07;;;0.70;;
38224;SDS011;24025;48.138;11.428;2023-03-11T08:33:04;0.95;;;0.40;;
38224;SDS011;24025;48.138;11.428;2023-03-11T08:35:36;3.92;;;0.50;;
38224;SDS011;24025;48.138;11.428;2023-03-11T08:38:08;0.75;;;0.28;;
38224;SDS011;24025;48.138;11.428;2023-03-11T08:40:39;0.80;;;0.40;;
38224;SDS011;24025;48.138;11.428;2023-03-11T08:43:12;3.30;;;0.50;;
38224;SDS011;24025;48.138;11.428;2023-03-11T08:48:15;1.17;;;0.40;;
38224;SDS011;24025;48.138;11.428;2023-03-11T08:50:47;1.60;;;0.60;;
38224;SDS011;24025;48.138;11.428;2023-03-11T08:53:24;1.30;;;0.50;;
38224;SDS011;24025;48.138;11.428;2023-03-11T08:55:56;1.60;;;0.40;;
38224;SDS011;24025;48.138;11.428;2023-03-11T08:58:28;1.57;;;0.50;;
38224;SDS011;24025;48.138;11.428;2023-03-11T09:01:00;3.00;;;0.50;;
38224;SDS011;24025;48.138;11.428;2023-03-11T09:03:32;2.45;;;0.40;;
38224;SDS011;24025;48.138;11.428;2023-03-11T09:06:07;1.27;;;0.47;;
38224;SDS011;24025;48.138;11.428;2023-03-11T09:08:41;0.77;;;0.30;;
38224;SDS011;24025;48.138;11.428;2023-03-11T09:11:14;2.15;;;0.50;;
38224;SDS011;24025;48.138;11.428;2023-03-11T09:13:48;1.08;;;0.50;;
38224;SDS011;24025;48.138;11.428;2023-03-11T09:16:20;0.63;;;0.30;;
38224;SDS011;24025;48.138;11.428;2023-03-11T09:18:53;1.27;;;0.60;;
38224;SDS011;24025;48.138;11.428;2023-03-11T09:21:25;0.90;;;0.40;;
38224;SDS011;24025;48.138;11.428;2023-03-11T09:23:56;0.80;;;0.40;;
38224;SDS011;24025;48.138;11.428;2023-03-11T09:26:28;0.38;;;0.30;;
38224;SDS011;24025;48.138;11.428;2023-03-11T09:29:01;0.50;;;0.22;;
38224;SDS011;24025;48.138;11.428;2023-03-11T09:31:32;2.15;;;0.30;;
38224;SDS011;24025;48.138;11.428;2023-03-11T09:34:04;2.13;;;0.50;;
38224;SDS011;24025;48.138;11.428;2023-03-11T09:36:36;0.98;;;0.40;;
38224;SDS011;24025;48.138;11.428;2023-03-11T09:39:07;1.23;;;0.25;;
38224;SDS011;24025;48.138;11.428;2023-03-11T09:44:33;1.17;;;0.40;;
38224;SDS011;24025;48.138;11.428;2023-03-11T09:55:43;3.45;;;0.40;;
38224;SDS011;24025;48.138;11.428;2023-03-11T09:58:25;1.17;;;0.30;;
38224;SDS011;24025;48.138;11.428;2023-03-11T10:03:51;1.17;;;0.30;;
38224;SDS011;24025;48.138;11.428;2023-03-11T10:06:29;0.90;;;0.50;;
38224;SDS011;24025;48.138;11.428;2023-03-11T10:12:17;2.63;;;0.20;;
38224;SDS011;24025;48.138;11.428;2023-03-11T10:26:36;1.85;;;0.10;;
38224;SDS011;24025;48.138;11.428;2023-03-11T10:29:15;0.50;;;0.10;;
38224;SDS011;24025;48.138;11.428;2023-03-11T10:34:45;0.98;;;0.20;;
38224;SDS011;24025;48.138;11.428;2023-03-11T10:37:28;1.08;;;0.30;;
38224;SDS011;24025;48.138;11.428;2023-03-11T10:40:21;0.90;;;0.38;;
38224;SDS011;24025;48.138;11.428;2023-03-11T10:43:05;1.20;;;0.40;;
38224;SDS011;24025;48.138;11.428;2023-03-11T10:45:42;0.52;;;0.20;;
38224;SDS011;24025;48.138;11.428;2023-03-11T10:48:17;0.15;;;0.00;;
38224;SDS011;24025;48.138;11.428;2023-03-11T10:53:49;1.63;;;0.30;;
38224;SDS011;24025;48.138;11.428;2023-03-11T10:56:32;0.85;;;0.30;;
38224;SDS011;24025;48.138;11.428;2023-03-11T10:59:19;5.57;;;0.30;;
38224;SDS011;24025;48.138;11.428;2023-03-11T11:02:01;0.43;;;0.22;;
38224;SDS011;24025;48.138;11.428;2023-03-11T11:04:35;3.25;;;0.40;;
38224;SDS011;24025;48.138;11.428;2023-03-11T11:07:29;3.97;;;0.60;;
38224;SDS011;24025;48.138;11.428;2023-03-11T11:15:33;3.40;;;0.40;;
38224;SDS011;24025;48.138;11.428;2023-03-11T11:23:36;1.13;;;0.40;;
38224;SDS011;24025;48.138;11.428;2023-03-11T11:26:22;1.45;;;0.30;;
38224;SDS011;24025;48.138;11.428;2023-03-11T11:31:41;0.82;;;0.50;;
38224;SDS011;24025;48.138;11.428;2023-03-11T11:37:10;2.50;;;0.30;;
38224;SDS011;24025;48.138;11.428;2023-03-11T11:39:48;0.77;;;0.25;;
38224;SDS011;24025;48.138;11.428;2023-03-11T11:42:25;1.02;;;0.40;;
38224;SDS011;24025;48.138;11.428;2023-03-11T11:45:08;0.90;;;0.38;;
38224;SDS011;24025;48.138;11.428;2023-03-11T11:47:43;2.13;;;0.43;;
38224;SDS011;24025;48.138;11.428;2023-03-11T11:50:25;2.38;;;0.30;;
38224;SDS011;24025;48.138;11.428;2023-03-11T11:53:20;1.40;;;0.30;;
38224;SDS011;24025;48.138;11.428;2023-03-11T11:55:59;1.73;;;0.50;;
38224;SDS011;24025;48.138;11.428;2023-03-11T11:58:34;2.08;;;0.20;;
38224;SDS011;24025;48.138;11.428;2023-03-11T12:02:11;1.45;;;0.22;;
38224;SDS011;24025;48.138;11.428;2023-03-11T12:05:03;0.57;;;0.28;;
38224;SDS011;24025;48.138;11.428;2023-03-11T12:15:51;3.67;;;0.32;;
38224;SDS011;24025;48.138;11.428;2023-03-11T12:18:37;1.20;;;0.30;;
38224;SDS011;24025;48.138;11.428;2023-03-11T12:21:38;3.08;;;0.63;;
38224;SDS011;24025;48.138;11.428;2023-03-11T12:24:27;0.40;;;0.20;;
38224;SDS011;24025;48.138;11.428;2023-03-11T12:27:26;0.40;;;0.30;;
38224;SDS011;24025;48.138;11.428;2023-03-11T12:30:04;1.35;;;0.25;;
38224;SDS011;24025;48.138;11.428;2023-03-11T12:32:46;1.35;;;0.30;;
38224;SDS011;24025;48.138;11.428;2023-03-11T12:38:06;0.63;;;0.28;;
38224;SDS011;24025;48.138;11.428;2023-03-11T12:40:48;1.95;;;0.55;;
38224;SDS011;24025;48.138;11.428;2023-03-11T12:46:09;8.43;;;0.38;;
38224;SDS011;24025;48.138;11.428;2023-03-11T12:48:48;1.27;;;0.47;;
38224;SDS011;24025;48.138;11.428;2023-03-11T12:51:39;2.95;;;0.40;;
38224;SDS011;24025;48.138;11.428;2023-03-11T12:54:25;3.35;;;0.40;;
38224;SDS011;24025;48.138;11.428;2023-03-11T12:57:51;0.63;;;0.30;;
38224;SDS011;24025;48.138;11.428;2023-03-11T13:08:42;1.13;;;0.30;;
38224;SDS011;24025;48.138;11.428;2023-03-11T13:11:26;2.20;;;0.30;;
38224;SDS011;24025;48.138;11.428;2023-03-11T13:16:46;2.00;;;0.47;;
38224;SDS011;24025;48.138;11.428;2023-03-11T13:21:57;1.38;;;0.52;;
38224;SDS011;24025;48.138;11.428;2023-03-11T13:27:08;1.02;;;0.20;;
38224;SDS011;24025;48.138;11.428;2023-03-11T13:29:52;0.75;;;0.22;;
38224;SDS011;24025;48.138;11.428;2023-03-11T13:35:41;2.67;;;0.38;;
38224;SDS011;24025;48.138;11.428;2023-03-11T13:38:38;3.08;;;0.60;;
38224;SDS011;24025;48.138;11.428;2023-03-11T13:41:31;3.05;;;0.50;;
38224;SDS011;24025;48.138;11.428;2023-03-11T13:44:11;1.00;;;0.68;;
38224;SDS011;24025;48.138;11.428;2023-03-11T13:46:55;1.15;;;0.28;;
38224;SDS011;24025;48.138;11.428;2023-03-11T13:49:34;1.98;;;0.50;;
38224;SDS011;24025;48.138;11.428;2023-03-11T13:52:13;1.08;;;0.40;;
38224;SDS011;24025;48.138;11.428;2023-03-11T13:54:53;4.40;;;0.88;;
38224;SDS011;24025;48.138;11.428;2023-03-11T13:57:33;2.78;;;0.47;;
38224;SDS011;24025;48.138;11.428;2023-03-11T14:02:52;3.78;;;0.68;;
38224;SDS011;24025;48.138;11.428;2023-03-11T14:05:28;1.35;;;0.50;;
38224;SDS011;24025;48.138;11.428;2023-03-11T14:08:12;0.63;;;0.45;;
38224;SDS011;24025;48.138;11.428;2023-03-11T14:13:46;2.38;;;0.47;;
38224;SDS011;24025;48.138;11.428;2023-03-11T14:16:21;1.80;;;0.82;;
38224;SDS011;24025;48.138;11.428;2023-03-11T14:19:27;3.47;;;0.60;;
38224;SDS011;24025;48.138;11.428;2023-03-11T14:21:59;3.72;;;0.60;;
38224;SDS011;24025;48.138;11.428;2023-03-11T14:24:30;2.75;;;0.50;;
38224;SDS011;24025;48.138;11.428;2023-03-11T14:29:38;2.80;;;0.50;;
38224;SDS011;24025;48.138;11.428;2023-03-11T14:32:27;1.45;;;0.55;;
38224;SDS011;24025;48.138;11.428;2023-03-11T14:35:00;1.25;;;0.45;;
38224;SDS011;24025;48.138;11.428;2023-03-11T14:40:24;1.42;;;0.55;;
38224;SDS011;24025;48.138;11.428;2023-03-11T14:43:09;2.40;;;0.50;;
38224;SDS011;24025;48.138;11.428;2023-03-11T14:45:41;2.95;;;0.40;;
38224;SDS011;24025;48.138;11.428;2023-03-11T14:48:18;2.40;;;0.77;;
38224;SDS011;24025;48.138;11.428;2023-03-11T14:50:52;2.13;;;0.57;;
38224;SDS011;24025;48.138;11.428;2023-03-11T14:53:37;1.10;;;0.52;;
38224;SDS011;24025;48.138;11.428;2023-03-11T14:56:20;1.73;;;0.50;;
38224;SDS011;24025;48.138;11.428;2023-03-11T15:01:39;2.53;;;0.55;;
38224;SDS011;24025;48.138;11.428;2023-03-11T15:04:13;0.68;;;0.45;;
38224;SDS011;24025;48.138;11.428;2023-03-11T15:07:06;3.55;;;0.57;;
38224;SDS011;24025;48.138;11.428;2023-03-11T15:09:38;2.45;;;0.50;;
38224;SDS011;24025;48.138;11.428;2023-03-11T15:12:31;2.20;;;0.40;;
38224;SDS011;24025;48.138;11.428;2023-03-11T15:15:19;1.33;;;0.60;;
38224;SDS011;24025;48.138;11.428;2023-03-11T15:17:59;2.57;;;0.70;;
38224;SDS011;24025;48.138;11.428;2023-03-11T15:20:34;2.33;;;0.60;;
38224;SDS011;24025;48.138;11.428;2023-03-11T15:23:15;2.58;;;0.60;;
38224;SDS011;24025;48.138;11.428;2023-03-11T15:25:51;1.58;;;0.65;;
38224;SDS011;24025;48.138;11.428;2023-03-11T15:28:24;2.00;;;0.40;;
38224;SDS011;24025;48.138;11.428;2023-03-11T15:33:52;4.35;;;0.82;;
38224;SDS011;24025;48.138;11.428;2023-03-11T15:36:32;2.15;;;0.80;;
38224;SDS011;24025;48.138;11.428;2023-03-11T15:39:06;1.65;;;0.50;;
38224;SDS011;24025;48.138;11.428;2023-03-11T15:41:41;1.00;;;0.47;;
38224;SDS011;24025;48.138;11.428;2023-03-11T15:47:12;1.67;;;0.60;;
38224;SDS011;24025;48.138;11.428;2023-03-11T15:49:45;1.33;;;0.60;;
38224;SDS011;24025;48.138;11.428;2023-03-11T15:52:17;4.38;;;1.05;;
38224;SDS011;24025;48.138;11.428;2023-03-11T15:54:49;1.95;;;0.73;;
38224;SDS011;24025;48.138;11.428;2023-03-11T15:57:26;2.92;;;0.55;;
38224;SDS011;24025;48.138;11.428;2023-03-11T16:00:00;2.88;;;0.77;;
38224;SDS011;24025;48.138;11.428;2023-03-11T16:02:32;2.60;;;0.55;;
38224;SDS011;24025;48.138;11.428;2023-03-11T16:05:05;1.48;;;0.65;;
38224;SDS011;24025;48.138;11.428;2023-03-11T16:07:44;1.33;;;0.52;;
38224;SDS011;24025;48.138;11.428;2023-03-11T16:10:18;0.85;;;0.55;;
38224;SDS011;24025;48.138;11.428;2023-03-11T16:12:52;5.78;;;1.23;;
38224;SDS011;24025;48.138;11.428;2023-03-11T16:15:28;1.52;;;0.80;;
38224;SDS011;24025;48.138;11.428;2023-03-11T16:18:02;2.15;;;0.70;;
38224;SDS011;24025;48.138;11.428;2023-03-11T16:20:40;1.80;;;0.60;;
38224;SDS011;24025;48.138;11.428;2023-03-11T16:23:24;1.50;;;0.70;;
38224;SDS011;24025;48.138;11.428;2023-03-11T16:25:58;5.10;;;0.88;;
38224;SDS011;24025;48.138;11.428;2023-03-11T16:28:32;2.83;;;0.57;;
38224;SDS011;24025;48.138;11.428;2023-03-11T16:31:03;2.60;;;0.88;;
38224;SDS011;24025;48.138;11.428;2023-03-11T16:33:35;2.63;;;0.70;;
38224;SDS011;24025;48.138;11.428;2023-03-11T16:36:10;0.90;;;0.52;;
38224;SDS011;24025;48.138;11.428;2023-03-11T16:38:43;3.73;;;1.10;;
38224;SDS011;24025;48.138;11.428;2023-03-11T16:41:17;3.80;;;0.50;;
38224;SDS011;24025;48.138;11.428;2023-03-11T16:43:49;3.28;;;1.25;;
38224;SDS011;24025;48.138;11.428;2023-03-11T16:46:20;2.00;;;0.60;;
38224;SDS011;24025;48.138;11.428;2023-03-11T16:48:52;1.38;;;0.50;;
38224;SDS011;24025;48.138;11.428;2023-03-11T16:51:23;1.17;;;0.70;;
38224;SDS011;24025;48.138;11.428;2023-03-11T16:53:55;1.00;;;0.33;;
38224;SDS011;24025;48.138;11.428;2023-03-11T16:56:27;2.15;;;0.98;;
38224;SDS011;24025;48.138;11.428;2023-03-11T16:58:58;12.38;;;4.60;;
38224;SDS011;24025;48.138;11.428;2023-03-11T17:01:31;7.00;;;2.72;;
38224;SDS011;24025;48.138;11.428;2023-03-11T17:04:06;5.45;;;2.20;;
38224;SDS011;24025;48.138;11.428;2023-03-11T17:06:38;5.15;;;2.28;;
38224;SDS011;24025;48.138;11.428;2023-03-11T17:09:10;5.95;;;2.10;;
38224;SDS011;24025;48.138;11.428;2023-03-11T17:11:41;3.80;;;1.70;;
38224;SDS011;24025;48.138;11.428;2023-03-11T17:14:13;1.58;;;1.20;;
38224;SDS011;24025;48.138;11.428;2023-03-11T17:16:47;1.83;;;1.13;;
38224;SDS011;24025;48.138;11.428;2023-03-11T17:19:18;3.87;;;0.97;;